createdAt,value
2023-02-18T00:00:20.274Z,7.31
2023-02-18T00:02:26.387Z,7.25
2023-02-18T00:04:32.592Z,7.02
2023-02-18T00:06:38.006Z,6.99
2023-02-18T00:08:43.234Z,7.24
2023-02-18T00:10:48.409Z,7.14
2023-02-18T00:12:53.936Z,7.15
2023-02-18T00:14:59.595Z,7.12
2023-02-18T00:17:04.912Z,7.2
2023-02-18T00:19:10.347Z,7.05
2023-02-18T00:21:15.927Z,7.1
2023-02-18T00:23:21.140Z,7.07
2023-02-18T00:25:26.305Z,6.96
2023-02-18T00:27:32.031Z,7.02
2023-02-18T00:29:37.511Z,7.04
2023-02-18T00:31:42.905Z,7.01
2023-02-18T00:33:48.482Z,6.92
2023-02-18T00:35:53.803Z,6.94
2023-02-18T00:37:58.975Z,6.95
2023-02-18T00:40:04.285Z,6.93
2023-02-18T00:42:09.319Z,6.86
2023-02-18T00:44:14.840Z,6.93
2023-02-18T00:46:19.989Z,6.91
2023-02-18T00:48:25.617Z,6.92
2023-02-18T00:50:30.656Z,6.93
2023-02-18T00:52:35.766Z,6.93
2023-02-18T00:54:41.065Z,6.85
2023-02-18T00:56:46.327Z,6.83
2023-02-18T00:58:51.653Z,6.86
2023-02-18T01:00:56.847Z,6.91
2023-02-18T01:03:02.048Z,7.02
2023-02-18T01:05:06.971Z,7.03
2023-02-18T01:07:12.218Z,6.93
2023-02-18T01:09:17.685Z,6.83
2023-02-18T01:11:23.153Z,6.73
2023-02-18T01:13:28.754Z,6.67
2023-02-18T01:15:34.450Z,6.78
2023-02-18T01:17:39.814Z,6.77
2023-02-18T01:19:45.112Z,6.81
2023-02-18T01:21:50.521Z,6.93
2023-02-18T01:23:56.146Z,6.82
2023-02-18T01:26:02.220Z,6.87
2023-02-18T01:28:08.063Z,6.88
2023-02-18T01:30:13.379Z,6.93
2023-02-18T01:32:19.468Z,6.93
2023-02-18T01:34:25.311Z,6.91
2023-02-18T01:36:30.318Z,6.93
2023-02-18T01:38:35.853Z,6.89
2023-02-18T01:40:41.162Z,6.92
2023-02-18T01:42:46.346Z,6.85
2023-02-18T01:44:51.478Z,6.89
2023-02-18T01:46:57.009Z,6.85
2023-02-18T01:49:02.843Z,6.85
2023-02-18T01:51:08.034Z,6.85
2023-02-18T01:53:13.725Z,6.88
2023-02-18T01:55:19.191Z,6.8
2023-02-18T01:57:24.491Z,6.85
2023-02-18T01:59:29.704Z,6.81
2023-02-18T02:01:34.893Z,6.77
2023-02-18T02:03:40.230Z,6.74
2023-02-18T02:05:45.563Z,6.73
2023-02-18T02:07:50.529Z,6.67
2023-02-18T02:09:55.650Z,6.63
2023-02-18T02:12:01.019Z,6.64
2023-02-18T02:14:06.320Z,6.66
2023-02-18T02:16:11.554Z,6.66
2023-02-18T02:18:17.348Z,6.69
2023-02-18T02:20:22.798Z,6.66
2023-02-18T02:22:28.064Z,6.66
2023-02-18T02:24:33.552Z,6.65
2023-02-18T02:26:38.644Z,6.62
2023-02-18T02:28:43.881Z,6.57
2023-02-18T02:30:48.921Z,6.57
2023-02-18T02:32:54.379Z,6.58
2023-02-18T02:34:59.857Z,6.62
2023-02-18T02:37:05.129Z,6.6
2023-02-18T02:39:10.231Z,6.62
2023-02-18T02:41:15.356Z,6.54
2023-02-18T02:43:20.308Z,6.53
2023-02-18T02:45:25.582Z,6.48
2023-02-18T02:47:31.351Z,6.56
2023-02-18T02:49:36.426Z,6.54
2023-02-18T02:51:44.388Z,6.47
2023-02-18T02:53:49.572Z,6.45
2023-02-18T02:55:54.750Z,6.39
2023-02-18T02:58:00.289Z,6.45
2023-02-18T03:00:05.641Z,6.39
2023-02-18T03:02:11.067Z,6.45
2023-02-18T03:04:16.393Z,6.42
2023-02-18T03:06:21.716Z,6.35
2023-02-18T03:08:26.965Z,6.38
2023-02-18T03:10:32.568Z,6.32
2023-02-18T03:12:38.064Z,6.34
2023-02-18T03:14:43.338Z,6.34
2023-02-18T03:16:48.507Z,6.32
2023-02-18T03:18:54.853Z,6.26
2023-02-18T03:21:00.102Z,6.24
2023-02-18T03:23:05.591Z,6.24
2023-02-18T03:25:10.895Z,6.22
2023-02-18T03:27:16.299Z,6.17
2023-02-18T03:29:21.757Z,6.22
2023-02-18T03:31:26.948Z,6.2
2023-02-18T03:33:32.962Z,6.25
2023-02-18T03:35:38.411Z,6.25
2023-02-18T03:37:43.906Z,6.12
2023-02-18T03:39:49.122Z,6.03
2023-02-18T03:41:54.315Z,5.95
2023-02-18T03:43:59.664Z,6.01
2023-02-18T03:46:04.839Z,5.92
2023-02-18T03:48:11.782Z,5.85
2023-02-18T03:50:16.896Z,5.81
2023-02-18T03:52:22.106Z,5.72
2023-02-18T03:54:27.277Z,5.76
2023-02-18T03:56:32.319Z,5.72
2023-02-18T03:58:37.530Z,5.67
2023-02-18T04:00:42.836Z,5.81
2023-02-18T04:02:47.785Z,5.74
2023-02-18T04:04:53.433Z,5.61
2023-02-18T04:07:01.439Z,5.56
2023-02-18T04:09:06.362Z,5.6
2023-02-18T04:11:11.516Z,5.57
2023-02-18T04:13:16.928Z,5.54
2023-02-18T04:15:22.316Z,5.49
2023-02-18T04:17:27.431Z,5.51
2023-02-18T04:19:32.653Z,5.46
2023-02-18T04:21:37.936Z,5.52
2023-02-18T04:23:43.147Z,5.49
2023-02-18T04:25:48.280Z,5.49
2023-02-18T04:27:53.446Z,5.43
2023-02-18T04:29:58.749Z,5.48
2023-02-18T04:32:04.254Z,5.38
2023-02-18T04:34:09.451Z,5.39
2023-02-18T04:36:14.771Z,5.44
2023-02-18T04:38:20.154Z,5.33
2023-02-18T04:40:25.365Z,5.31
2023-02-18T04:42:30.547Z,5.3
2023-02-18T04:44:36.322Z,5.24
2023-02-18T04:46:41.599Z,5.3
2023-02-18T04:48:46.810Z,5.34
2023-02-18T04:50:51.998Z,5.27
2023-02-18T04:52:57.458Z,5.24
2023-02-18T04:55:02.799Z,5.16
2023-02-18T04:57:07.822Z,5.16
2023-02-18T04:59:13.493Z,5.21
2023-02-18T05:01:18.909Z,5.19
2023-02-18T05:03:24.575Z,5.17
2023-02-18T05:05:29.784Z,5.26
2023-02-18T05:07:34.890Z,5.23
2023-02-18T05:09:43.398Z,5.09
2023-02-18T05:11:48.526Z,5.27
2023-02-18T05:13:53.975Z,5.23
2023-02-18T05:15:58.972Z,5.18
2023-02-18T05:18:04.308Z,5.24
2023-02-18T05:20:10.006Z,5.31
2023-02-18T05:22:15.739Z,5.22
2023-02-18T05:24:21.016Z,5.05
2023-02-18T05:26:26.046Z,5.1
2023-02-18T05:28:31.769Z,5.09
2023-02-18T05:30:37.190Z,5.07
2023-02-18T05:32:42.660Z,5
2023-02-18T05:34:47.751Z,4.98
2023-02-18T05:36:53.169Z,5.14
2023-02-18T05:38:58.328Z,5.14
2023-02-18T05:41:03.454Z,5.13
2023-02-18T05:43:08.554Z,5.13
2023-02-18T05:45:14.036Z,5.17
2023-02-18T05:47:19.522Z,5.18
2023-02-18T05:49:25.254Z,5.2
2023-02-18T05:51:30.682Z,5.24
2023-02-18T05:53:36.160Z,5.17
2023-02-18T05:55:41.524Z,5.27
2023-02-18T05:57:46.512Z,5.29
2023-02-18T05:59:51.594Z,5.29
2023-02-18T06:01:56.597Z,5.22
2023-02-18T06:04:01.871Z,5.24
2023-02-18T06:06:07.647Z,5.3
2023-02-18T06:08:14.462Z,5.26
2023-02-18T06:10:19.688Z,5.19
2023-02-18T06:12:25.185Z,5.14
2023-02-18T06:14:30.401Z,5.23
2023-02-18T06:16:35.542Z,5.35
2023-02-18T06:18:40.660Z,5.37
2023-02-18T06:20:45.967Z,5.33
2023-02-18T06:22:51.495Z,5.37
2023-02-18T06:24:57.290Z,5.37
2023-02-18T06:27:02.531Z,5.48
2023-02-18T06:29:07.442Z,5.49
2023-02-18T06:31:12.579Z,5.54
2023-02-18T06:33:18.377Z,5.52
2023-02-18T06:35:23.584Z,5.53
2023-02-18T06:37:29.040Z,5.55
2023-02-18T06:39:34.274Z,5.51
2023-02-18T06:41:39.988Z,5.5
2023-02-18T06:43:45.357Z,5.53
2023-02-18T06:45:50.629Z,5.58
2023-02-18T06:47:56.557Z,5.58
2023-02-18T06:50:02.329Z,5.58
2023-02-18T06:52:08.116Z,5.62
2023-02-18T06:54:14.092Z,5.62
2023-02-18T06:56:20.126Z,5.65
2023-02-18T06:58:26.540Z,5.66
2023-02-18T07:00:33.353Z,5.68
2023-02-18T07:02:40.131Z,5.64
2023-02-18T07:04:46.620Z,5.7
2023-02-18T07:06:53.154Z,5.67
2023-02-18T07:08:59.644Z,5.65
2023-02-18T07:11:06.131Z,5.68
2023-02-18T07:13:12.356Z,5.69
2023-02-18T07:15:18.765Z,5.67
2023-02-18T07:17:26.075Z,5.68
2023-02-18T07:19:32.052Z,5.69
2023-02-18T07:21:37.736Z,5.69
2023-02-18T07:23:43.130Z,5.73
2023-02-18T07:25:49.245Z,5.74
2023-02-18T07:27:55.241Z,5.77
2023-02-18T07:30:00.795Z,5.72
2023-02-18T07:32:07.376Z,5.74
2023-02-18T07:34:13.722Z,5.74
2023-02-18T07:36:19.828Z,5.71
2023-02-18T07:38:25.467Z,5.71
2023-02-18T07:40:31.596Z,5.75
2023-02-18T07:42:38.047Z,5.77
2023-02-18T07:44:43.627Z,5.78
2023-02-18T07:46:49.839Z,5.81
2023-02-18T07:48:55.573Z,5.78
2023-02-18T07:51:01.092Z,5.84
2023-02-18T07:53:07.016Z,5.9
2023-02-18T07:55:13.371Z,5.9
2023-02-18T07:57:19.920Z,5.91
2023-02-18T07:59:25.864Z,5.96
2023-02-18T08:01:32.124Z,6.09
2023-02-18T08:03:38.369Z,6.15
2023-02-18T08:05:43.889Z,6.14
2023-02-18T08:07:49.804Z,6.1
2023-02-18T08:09:56.607Z,6.15
2023-02-18T08:12:03.661Z,6.19
2023-02-18T08:14:10.419Z,6.15
2023-02-18T08:16:17.052Z,6.05
2023-02-18T08:18:25.205Z,6.1
2023-02-18T08:20:31.195Z,6.1
2023-02-18T08:22:36.695Z,6.14
2023-02-18T08:24:43.801Z,6.14
2023-02-18T08:27:00.142Z,6.15
2023-02-18T08:29:07.393Z,6.23
2023-02-18T08:31:13.083Z,6.41
2023-02-18T08:33:20.339Z,6.45
2023-02-18T08:35:26.211Z,6.34
2023-02-18T08:37:31.361Z,6.34
2023-02-18T08:40:01.920Z,6.28
2023-02-18T08:42:07.979Z,6.26
2023-02-18T08:44:14.153Z,6.27
2023-02-18T08:46:25.361Z,6.27
2023-02-18T08:48:41.826Z,6.31
2023-02-18T08:50:47.976Z,6.41
2023-02-18T08:52:53.880Z,6.51
2023-02-18T08:55:00.489Z,6.52
2023-02-18T08:57:06.741Z,6.41
2023-02-18T08:59:12.677Z,6.49
2023-02-18T09:01:18.694Z,6.57
2023-02-18T09:03:25.588Z,6.44
2023-02-18T09:05:31.798Z,6.52
2023-02-18T09:07:36.926Z,6.49
2023-02-18T09:09:42.731Z,6.76
2023-02-18T09:11:48.861Z,6.9
2023-02-18T09:13:55.058Z,6.71
2023-02-18T09:16:00.855Z,6.53
2023-02-18T09:18:06.493Z,6.5
2023-02-18T09:20:13.043Z,6.62
2023-02-18T09:22:19.118Z,6.8
2023-02-18T09:24:25.186Z,6.72
2023-02-18T09:26:31.726Z,6.73
2023-02-18T09:28:38.372Z,6.56
2023-02-18T09:30:45.080Z,6.56
2023-02-18T09:32:51.549Z,6.63
2023-02-18T09:34:59.020Z,6.75
2023-02-18T09:37:05.725Z,6.87
2023-02-18T09:39:12.279Z,6.91
2023-02-18T09:41:20.739Z,7.1
2023-02-18T09:43:27.008Z,7.02
2023-02-18T09:45:33.835Z,7.1
2023-02-18T09:47:42.338Z,7.1
2023-02-18T09:49:49.050Z,7.05
2023-02-18T09:51:55.230Z,7.09
2023-02-18T09:54:01.874Z,6.96
2023-02-18T09:56:08.361Z,6.77
2023-02-18T09:58:14.227Z,6.78
2023-02-18T10:00:22.649Z,6.71
2023-02-18T10:02:32.763Z,6.68
2023-02-18T10:04:40.074Z,6.74
2023-02-18T10:06:47.981Z,6.78
2023-02-18T10:08:55.368Z,6.74
2023-02-18T10:11:02.740Z,6.79
2023-02-18T10:13:09.670Z,6.83
2023-02-18T10:15:15.524Z,6.87
2023-02-18T10:17:24.719Z,6.82
2023-02-18T10:19:31.172Z,6.81
2023-02-18T10:21:36.748Z,6.78
2023-02-18T10:23:43.731Z,6.83
2023-02-18T10:25:51.828Z,6.97
2023-02-18T10:28:01.632Z,7.18
2023-02-18T10:30:08.680Z,7.06
2023-02-18T10:32:16.885Z,6.84
2023-02-18T10:34:23.461Z,6.79
2023-02-18T10:36:31.401Z,6.78
2023-02-18T10:38:37.578Z,6.93
2023-02-18T10:40:45.569Z,6.78
2023-02-18T10:42:53.600Z,6.79
2023-02-18T10:45:00.597Z,6.79
2023-02-18T10:47:07.602Z,6.62
2023-02-18T10:49:15.046Z,6.67
2023-02-18T10:51:21.449Z,6.7
2023-02-18T10:53:28.043Z,6.76
2023-02-18T10:55:34.631Z,6.73
2023-02-18T10:57:41.133Z,6.75
2023-02-18T10:59:47.935Z,6.62
2023-02-18T11:01:54.554Z,6.7
2023-02-18T11:04:01.921Z,6.8
2023-02-18T11:06:11.678Z,6.94
2023-02-18T11:08:18.067Z,6.96
2023-02-18T11:10:24.056Z,6.97
2023-02-18T11:12:30.817Z,6.97
2023-02-18T11:14:37.509Z,7.07
2023-02-18T11:16:44.278Z,6.99
2023-02-18T11:18:50.594Z,6.81
2023-02-18T11:20:57.884Z,6.88
2023-02-18T11:23:04.397Z,6.87
2023-02-18T11:25:11.286Z,6.83
2023-02-18T11:27:18.205Z,6.76
2023-02-18T11:29:25.259Z,6.81
2023-02-18T11:31:31.731Z,6.9
2023-02-18T11:33:38.594Z,7.02
2023-02-18T11:35:44.330Z,7
2023-02-18T11:37:50.873Z,6.99
2023-02-18T11:39:56.868Z,6.95
2023-02-18T11:42:03.193Z,6.8
2023-02-18T11:44:10.424Z,6.82
2023-02-18T11:46:16.700Z,6.76
2023-02-18T11:48:23.548Z,6.82
2023-02-18T11:50:30.589Z,6.83
2023-02-18T11:52:36.911Z,6.92
2023-02-18T11:54:43.885Z,6.87
2023-02-18T11:56:52.586Z,6.88
2023-02-18T11:59:00.385Z,6.84
2023-02-18T12:01:07.594Z,7.05
2023-02-18T12:03:15.466Z,7.15
2023-02-18T12:05:22.340Z,7.15
2023-02-18T12:07:29.106Z,7.18
2023-02-18T12:09:35.827Z,7.3
2023-02-18T12:11:42.915Z,7.32
2023-02-18T12:13:49.562Z,7.38
2023-02-18T12:15:57.196Z,7.21
2023-02-18T12:18:04.334Z,7.3
2023-02-18T12:20:13.991Z,7.41
2023-02-18T12:22:19.434Z,7.29
2023-02-18T12:24:26.034Z,7.25
2023-02-18T12:26:33.676Z,7.32
2023-02-18T12:28:43.192Z,7.19
2023-02-18T12:30:50.955Z,7.12
2023-02-18T12:32:57.469Z,7.28
2023-02-18T12:35:04.088Z,7.12
2023-02-18T12:37:15.228Z,7.03
2023-02-18T12:39:23.959Z,6.96
2023-02-18T12:41:32.620Z,6.96
2023-02-18T12:43:39.479Z,6.97
2023-02-18T12:45:45.114Z,7.01
2023-02-18T12:47:52.733Z,7.01
2023-02-18T12:50:00.557Z,7
2023-02-18T12:52:08.283Z,6.99
2023-02-18T12:54:15.565Z,7
2023-02-18T12:56:22.514Z,7.05
2023-02-18T12:58:29.987Z,6.92
2023-02-18T13:00:37.650Z,6.96
2023-02-18T13:02:44.796Z,7
2023-02-18T13:04:52.773Z,7.11
2023-02-18T13:07:01.197Z,7.11
2023-02-18T13:09:08.836Z,7.1
2023-02-18T13:11:16.551Z,7.1
2023-02-18T13:13:24.208Z,7.02
2023-02-18T13:15:31.098Z,6.97
2023-02-18T13:17:37.748Z,6.99
2023-02-18T13:19:44.446Z,7.03
2023-02-18T13:21:52.365Z,7
2023-02-18T13:23:59.221Z,7
2023-02-18T13:26:09.952Z,7.01
2023-02-18T13:28:17.883Z,6.98
2023-02-18T13:30:25.193Z,6.94
2023-02-18T13:32:35.567Z,6.93
2023-02-18T13:34:42.500Z,6.91
2023-02-18T13:36:49.525Z,6.83
2023-02-18T13:38:58.645Z,6.8
2023-02-18T13:41:07.308Z,6.79
2023-02-18T13:43:14.972Z,6.78
2023-02-18T13:45:22.883Z,6.78
2023-02-18T13:47:30.844Z,6.79
2023-02-18T13:49:39.056Z,6.79
2023-02-18T13:51:46.949Z,6.78
2023-02-18T13:53:54.230Z,6.76
2023-02-18T13:56:01.713Z,6.73
2023-02-18T13:58:11.030Z,6.74
2023-02-18T14:00:18.460Z,6.75
2023-02-18T14:02:28.320Z,6.77
2023-02-18T14:04:38.300Z,6.73
2023-02-18T14:06:44.717Z,6.71
2023-02-18T14:08:52.266Z,6.67
2023-02-18T14:11:00.486Z,6.64
2023-02-18T14:13:08.330Z,6.64
2023-02-18T14:15:16.344Z,6.6
2023-02-18T14:17:28.395Z,6.54
2023-02-18T14:19:37.253Z,6.54
2023-02-18T14:21:45.483Z,6.58
2023-02-18T14:23:53.357Z,6.57
2023-02-18T14:26:01.751Z,6.58
2023-02-18T14:28:08.744Z,6.53
2023-02-18T14:30:18.096Z,6.53
2023-02-18T14:32:27.817Z,6.53
2023-02-18T14:34:37.790Z,6.5
2023-02-18T14:36:50.547Z,6.46
2023-02-18T14:39:00.390Z,6.45
2023-02-18T14:41:09.117Z,6.4
2023-02-18T14:43:18.488Z,6.44
2023-02-18T14:45:26.402Z,6.52
2023-02-18T14:47:34.406Z,6.54
2023-02-18T14:49:43.178Z,6.53
2023-02-18T14:51:51.030Z,6.47
2023-02-18T14:53:59.607Z,6.43
2023-02-18T14:56:11.768Z,6.39
2023-02-18T14:58:20.321Z,6.37
2023-02-18T15:00:29.876Z,6.35
2023-02-18T15:02:36.717Z,6.37
2023-02-18T15:04:44.314Z,6.38
2023-02-18T15:06:52.028Z,6.33
2023-02-18T15:08:58.577Z,6.33
2023-02-18T15:11:08.820Z,6.3
2023-02-18T15:13:20.758Z,6.3
2023-02-18T15:15:36.603Z,6.28
2023-02-18T15:17:46.669Z,6.26
2023-02-18T15:19:54.540Z,6.28
2023-02-18T15:22:02.835Z,6.32
2023-02-18T15:24:18.810Z,6.31
2023-02-18T15:26:27.809Z,6.28
2023-02-18T15:28:33.743Z,6.24
2023-02-18T15:30:41.103Z,6.2
2023-02-18T15:32:48.423Z,6.08
2023-02-18T15:34:57.127Z,5.96
2023-02-18T15:37:07.761Z,5.91
2023-02-18T15:39:21.396Z,5.88
2023-02-18T15:41:31.993Z,5.79
2023-02-18T15:43:43.994Z,5.68
2023-02-18T15:45:53.263Z,5.58
2023-02-18T15:48:00.748Z,5.52
2023-02-18T15:50:10.757Z,5.45
2023-02-18T15:52:19.211Z,5.39
2023-02-18T15:54:27.105Z,5.28
2023-02-18T15:56:33.574Z,5.25
2023-02-18T15:58:41.598Z,5.19
2023-02-18T16:00:55.607Z,5.19
2023-02-18T16:03:08.589Z,5.14
2023-02-18T16:05:19.234Z,5.06
2023-02-18T16:07:27.481Z,4.98
2023-02-18T16:09:42.564Z,4.88
2023-02-18T16:11:55.142Z,4.76
2023-02-18T16:14:08.111Z,4.67
2023-02-18T16:16:16.330Z,4.52
2023-02-18T16:18:28.565Z,4.42
2023-02-18T16:20:36.641Z,4.29
2023-02-18T16:22:45.085Z,4.23
2023-02-18T16:24:54.674Z,4.16
2023-02-18T16:27:04.328Z,4.1
2023-02-18T16:29:14.148Z,4.01
2023-02-18T16:31:23.054Z,3.97
2023-02-18T16:33:30.011Z,3.91
2023-02-18T16:35:48.912Z,3.91
2023-02-18T16:37:57.004Z,3.85
2023-02-18T16:40:09.727Z,3.81
2023-02-18T16:42:21.712Z,3.8
2023-02-18T16:44:30.405Z,3.74
2023-02-18T16:46:38.338Z,3.73
2023-02-18T16:48:50.012Z,3.71
2023-02-18T16:51:00.325Z,3.68
2023-02-18T16:53:08.146Z,3.66
2023-02-18T16:55:18.311Z,3.65
2023-02-18T16:57:26.604Z,3.64
2023-02-18T16:59:33.921Z,3.62
2023-02-18T17:01:43.738Z,3.6
2023-02-18T17:03:56.708Z,3.56
2023-02-18T17:06:03.596Z,3.56
2023-02-18T17:08:12.260Z,3.57
2023-02-18T17:10:18.828Z,3.56
2023-02-18T17:12:29.356Z,3.53
2023-02-18T17:14:37.670Z,3.5
2023-02-18T17:16:46.260Z,3.5
2023-02-18T17:18:59.719Z,3.43
2023-02-18T17:21:12.895Z,3.46
2023-02-18T17:23:20.631Z,3.44
2023-02-18T17:25:31.855Z,3.44
2023-02-18T17:27:48.050Z,3.4
2023-02-18T17:29:57.264Z,3.35
2023-02-18T17:32:06.584Z,3.31
2023-02-18T17:34:16.352Z,3.21
2023-02-18T17:36:29.606Z,3.22
2023-02-18T17:38:39.570Z,3.2
2023-02-18T17:40:47.345Z,3.2
2023-02-18T17:42:56.078Z,3.2
2023-02-18T17:45:11.751Z,3.18
2023-02-18T17:47:22.686Z,3.16
2023-02-18T17:49:42.758Z,3.11
2023-02-18T17:51:52.766Z,3.07
2023-02-18T17:54:03.638Z,3.07
2023-02-18T17:56:12.092Z,3.06
2023-02-18T17:58:21.187Z,3.03
2023-02-18T18:00:29.437Z,3.01
2023-02-18T18:02:46.398Z,2.98
2023-02-18T18:05:01.616Z,2.94
2023-02-18T18:07:17.618Z,2.9
2023-02-18T18:09:26.157Z,2.9
2023-02-18T18:11:36.600Z,2.86
2023-02-18T18:13:46.221Z,2.86
2023-02-18T18:15:55.759Z,2.84
2023-02-18T18:18:08.841Z,2.84
2023-02-18T18:20:17.822Z,2.81
2023-02-18T18:22:27.988Z,2.81
2023-02-18T18:24:45.548Z,2.82
2023-02-18T18:27:06.587Z,2.81
2023-02-18T18:29:20.733Z,2.83
2023-02-18T18:31:31.157Z,2.85
2023-02-18T18:33:40.561Z,2.83
2023-02-18T18:35:51.245Z,2.86
2023-02-18T18:38:05.763Z,2.78
2023-02-18T18:40:19.020Z,2.79
2023-02-18T18:42:37.763Z,2.75
2023-02-18T18:44:49.184Z,2.71
2023-02-18T18:46:58.491Z,2.66
2023-02-18T18:49:12.510Z,2.63
2023-02-18T18:51:24.216Z,2.62
2023-02-18T18:53:35.097Z,2.63
2023-02-18T18:55:47.884Z,2.65
2023-02-18T18:58:01.569Z,2.64
2023-02-18T19:00:11.234Z,2.66
2023-02-18T19:02:25.054Z,2.64
2023-02-18T19:07:05.898Z,2.62
2023-02-18T19:09:17.792Z,2.62
2023-02-18T19:11:28.948Z,2.61
2023-02-18T19:13:40.167Z,2.59
2023-02-18T19:15:53.167Z,2.61
2023-02-18T19:18:04.337Z,2.59
2023-02-18T19:20:14.352Z,2.6
2023-02-18T19:22:21.878Z,2.61
2023-02-18T19:24:31.468Z,2.61
2023-02-18T19:26:40.566Z,2.63
2023-02-18T19:28:51.554Z,2.65
2023-02-18T19:31:01.560Z,2.65
2023-02-18T19:33:10.101Z,2.66
2023-02-18T19:35:17.952Z,2.67
2023-02-18T19:37:27.037Z,2.67
2023-02-18T19:39:41.611Z,2.69
2023-02-18T19:41:49.231Z,2.68
2023-02-18T19:44:02.720Z,2.69
2023-02-18T19:46:13.409Z,2.7
2023-02-18T19:48:23.358Z,2.71
2023-02-18T19:50:33.677Z,2.69
2023-02-18T19:52:58.294Z,2.68
2023-02-18T19:55:08.867Z,2.67
2023-02-18T19:57:20.349Z,2.69
2023-02-18T19:59:30.190Z,2.68
2023-02-18T20:01:40.118Z,2.71
2023-02-18T20:03:52.171Z,2.72
2023-02-18T20:06:06.763Z,2.75
2023-02-18T20:08:18.088Z,2.73
2023-02-18T20:10:37.277Z,2.71
2023-02-18T20:12:47.759Z,2.65
2023-02-18T20:15:01.318Z,2.61
2023-02-18T20:17:11.290Z,2.57
2023-02-18T20:19:21.799Z,2.5
2023-02-18T20:21:30.304Z,2.5
2023-02-18T20:23:41.113Z,2.54
2023-02-18T20:25:53.159Z,2.61
2023-02-18T20:28:04.076Z,2.6
2023-02-18T20:30:15.102Z,2.57
2023-02-18T20:32:28.178Z,2.52
2023-02-18T20:34:37.322Z,2.48
2023-02-18T20:36:45.039Z,2.54
2023-02-18T20:38:54.829Z,2.56
2023-02-18T20:41:21.435Z,2.56
2023-02-18T20:43:32.532Z,2.59
2023-02-18T20:45:44.441Z,2.61
2023-02-18T20:47:53.610Z,2.64
2023-02-18T20:50:01.857Z,2.69
2023-02-18T20:52:17.630Z,2.69
2023-02-18T20:54:27.115Z,2.72
2023-02-18T20:56:37.925Z,2.72
2023-02-18T20:58:52.764Z,2.77
2023-02-18T21:01:06.615Z,2.78
2023-02-18T21:03:28.123Z,2.8
2023-02-18T21:05:36.964Z,2.83
2023-02-18T21:07:47.441Z,2.83
2023-02-18T21:09:58.350Z,2.84
2023-02-18T21:12:07.721Z,2.87
2023-02-18T21:14:19.575Z,2.86
2023-02-18T21:16:33.562Z,2.89
2023-02-18T21:18:49.639Z,2.89
2023-02-18T21:21:05.920Z,2.85
2023-02-18T21:23:16.552Z,2.88
2023-02-18T21:25:29.356Z,2.87
2023-02-18T21:27:38.820Z,2.84
2023-02-18T21:29:46.414Z,2.83
2023-02-18T21:31:54.920Z,2.82
2023-02-18T21:34:14.051Z,2.83
2023-02-18T21:36:23.441Z,2.82
2023-02-18T21:38:31.935Z,2.84
2023-02-18T21:40:42.651Z,2.87
2023-02-18T21:42:51.222Z,2.84
2023-02-18T21:44:59.707Z,2.83
2023-02-18T21:47:09.740Z,2.85
2023-02-18T21:49:18.725Z,2.86
2023-02-18T21:51:26.501Z,2.88
2023-02-18T21:53:34.185Z,2.89
2023-02-18T21:55:52.439Z,2.88
2023-02-18T21:58:10.119Z,2.89
2023-02-18T22:00:21.128Z,2.87
2023-02-18T22:02:30.616Z,2.86
2023-02-18T22:04:37.034Z,2.88
2023-02-18T22:06:44.782Z,2.87
2023-02-18T22:08:52.225Z,2.89
2023-02-18T22:10:59.129Z,2.95
2023-02-18T22:13:06.560Z,2.93
2023-02-18T22:15:13.904Z,2.92
2023-02-18T22:17:20.254Z,2.92
2023-02-18T22:19:26.222Z,2.89
2023-02-18T22:21:33.183Z,2.82
2023-02-18T22:23:39.653Z,2.76
2023-02-18T22:25:45.871Z,2.7
2023-02-18T22:27:51.848Z,2.61
2023-02-18T22:29:57.541Z,2.57
2023-02-18T22:32:03.827Z,2.57
2023-02-18T22:34:10.908Z,2.57
2023-02-18T22:36:17.278Z,2.55
2023-02-18T22:38:24.002Z,2.47
2023-02-18T22:40:30.336Z,2.44
2023-02-18T22:42:36.325Z,2.37
2023-02-18T22:44:42.282Z,2.27
2023-02-18T22:46:47.422Z,2.2
2023-02-18T22:48:53.421Z,2.16
2023-02-18T22:50:59.293Z,2.12
2023-02-18T22:53:05.384Z,2.08
2023-02-18T22:55:11.364Z,2.03
2023-02-18T22:57:17.434Z,1.99
2023-02-18T22:59:22.940Z,1.91
2023-02-18T23:01:28.534Z,1.86
2023-02-18T23:03:34.130Z,1.88
2023-02-18T23:05:40.196Z,1.85
2023-02-18T23:07:45.726Z,1.86
2023-02-18T23:09:51.409Z,1.83
2023-02-18T23:11:56.561Z,1.9
2023-02-18T23:14:01.777Z,1.84
2023-02-18T23:16:07.018Z,1.81
2023-02-18T23:18:12.190Z,1.79
2023-02-18T23:20:17.545Z,1.72
2023-02-18T23:22:22.802Z,1.64
2023-02-18T23:24:28.268Z,1.66
2023-02-18T23:26:33.629Z,1.61
2023-02-18T23:28:39.012Z,1.69
2023-02-18T23:30:44.339Z,1.66
2023-02-18T23:32:49.995Z,1.64
2023-02-18T23:34:55.712Z,1.7
2023-02-18T23:37:01.198Z,1.66
2023-02-18T23:39:06.832Z,1.61
2023-02-18T23:41:12.450Z,1.79
2023-02-18T23:43:17.646Z,1.8
2023-02-18T23:45:23.254Z,1.75
2023-02-18T23:47:28.886Z,1.79
2023-02-18T23:49:34.292Z,1.87
2023-02-18T23:51:40.216Z,1.93
2023-02-18T23:53:45.441Z,2.05
2023-02-18T23:55:50.624Z,2.16
2023-02-18T23:57:56.586Z,2.28
